Time;durP1;ratioP1;P1;durP2;ratioP2;P2;SDS_P1;SDS_P2;PMS_P1;PMS_P2;Temp;Humidity;BMP_temperature;BMP_pressure;BME280_temperature;BME280_humidity;BME280_pressure;Samples;Min_cycle;Max_cycle;Signal;HPM_P1;HPM_P2
2021/12/12 00:00:53;;;;;;;28.32;18.91;;;;;;;3.73;65.71;102168.57;456515;114;922517;-77
2021/12/12 00:02:06;;;;;;;24.41;18.83;;;;;;;3.72;65.65;102172.25;456002;116;922646;-78
2021/12/12 00:03:14;;;;;;;21.70;17.28;;;;;;;3.71;65.71;102167.83;455657;114;922538;-78
2021/12/12 00:04:16;;;;;;;25.14;17.97;;;;;;;3.70;65.66;102173.35;455580;114;923036;-78
2021/12/12 00:05:21;;;;;;;22.86;19.14;;;;;;;3.67;65.58;102166.39;456082;114;922734;-78
2021/12/12 00:06:30;;;;;;;27.81;20.00;;;;;;;3.68;65.74;102164.55;455958;114;922552;-77
2021/12/12 00:07:35;;;;;;;21.21;18.62;;;;;;;3.68;65.74;102164.55;456383;116;922961;-78
2021/12/12 00:08:40;;;;;;;22.66;18.77;;;;;;;3.69;65.81;102163.58;456495;115;923214;-77
2021/12/12 00:09:47;;;;;;;25.59;17.97;;;;;;;3.69;65.72;102155.48;455724;114;922949;-79
2021/12/12 00:10:54;;;;;;;22.84;18.59;;;;;;;3.68;65.75;102154.63;456611;114;922643;-80
2021/12/12 00:11:58;;;;;;;22.13;17.98;;;;;;;3.70;65.71;102154.47;456361;114;922559;-78
2021/12/12 00:13:07;;;;;;;26.04;17.56;;;;;;;3.69;65.70;102160.88;456395;114;923083;-78
2021/12/12 00:14:14;;;;;;;20.81;18.06;;;;;;;3.68;65.79;102160.02;456038;114;923147;-77
2021/12/12 00:15:19;;;;;;;28.09;19.39;;;;;;;3.69;65.79;102159.01;455810;114;922557;-78
2021/12/12 00:16:22;;;;;;;26.19;18.48;;;;;;;3.71;65.88;102156.19;456685;116;922604;-78
2021/12/12 00:17:29;;;;;;;19.96;17.66;;;;;;;3.73;65.89;102152.38;456411;114;922706;-78
2021/12/12 00:18:32;;;;;;;26.31;18.34;;;;;;;3.76;65.93;102159.34;456246;115;922972;-77
2021/12/12 00:19:36;;;;;;;26.56;17.57;;;;;;;3.80;65.86;102162.65;456507;115;922797;-78
2021/12/12 00:20:40;;;;;;;23.12;18.58;;;;;;;3.81;65.72;102159.80;442205;118;923316;-77
2021/12/12 00:21:46;;;;;;;22.73;17.32;;;;;;;3.82;65.74;102166.05;444528;116;922644;-79
2021/12/12 00:22:52;;;;;;;27.20;18.06;;;;;;;3.84;65.78;102161.39;455490;114;931014;-77
2021/12/12 00:23:56;;;;;;;20.10;17.93;;;;;;;3.86;65.76;102157.55;456617;114;922578;-78
2021/12/12 00:24:59;;;;;;;22.87;18.29;;;;;;;3.92;65.95;102157.02;455049;114;923059;-78
2021/12/12 00:26:04;;;;;;;39.94;19.64;;;;;;;3.92;65.95;102157.02;456821;114;930781;-78
2021/12/12 00:27:07;;;;;;;23.80;16.95;;;;;;;3.96;65.78;102149.53;456853;114;930280;-78
2021/12/12 00:28:15;;;;;;;20.92;16.18;;;;;;;3.98;65.66;102153.80;457144;115;922972;-77
2021/12/12 00:29:20;;;;;;;22.41;15.99;;;;;;;4.00;65.58;102156.37;456406;113;923048;-76
2021/12/12 00:30:26;;;;;;;28.23;15.40;;;;;;;4.02;65.52;102157.95;456199;114;922539;-76
2021/12/12 00:31:29;;;;;;;19.77;15.61;;;;;;;4.05;65.50;102165.77;456114;114;922746;-79
2021/12/12 00:32:36;;;;;;;16.82;14.60;;;;;;;4.08;65.43;102159.27;456743;114;922954;-77
2021/12/12 00:33:42;;;;;;;20.01;15.39;;;;;;;4.10;65.33;102166.22;456726;116;922698;-77
2021/12/12 00:34:53;;;;;;;28.39;16.77;;;;;;;4.13;65.25;102167.81;456518;115;922545;-79
2021/12/12 00:35:57;;;;;;;19.49;14.40;;;;;;;4.15;65.26;102163.11;456048;115;922568;-78
2021/12/12 00:37:00;;;;;;;21.69;15.78;;;;;;;4.17;65.12;102166.55;456791;114;922880;-78
2021/12/12 00:38:07;;;;;;;18.24;15.04;;;;;;;4.20;65.01;102168.96;455709;114;922704;-78
2021/12/12 00:39:20;;;;;;;22.33;15.31;;;;;;;4.20;64.86;102169.82;456551;115;930639;-77
2021/12/12 00:40:27;;;;;;;17.87;14.33;;;;;;;4.19;64.75;102169.95;456112;114;922661;-77
2021/12/12 00:41:34;;;;;;;27.73;14.85;;;;;;;4.18;64.72;102170.96;455596;114;922570;-77
2021/12/12 00:42:38;;;;;;;23.31;16.63;;;;;;;4.16;64.65;102172.92;455995;115;922703;-78
2021/12/12 00:43:45;;;;;;;20.39;15.02;;;;;;;4.15;64.68;102171.22;456957;116;922576;-78
2021/12/12 00:44:53;;;;;;;24.14;15.87;;;;;;;4.14;64.64;102174.89;456507;114;922563;-77
2021/12/12 00:45:59;;;;;;;19.77;15.69;;;;;;;4.12;64.59;102166.95;456289;114;922648;-79
2021/12/12 00:47:06;;;;;;;20.77;15.23;;;;;;;4.14;64.62;102177.59;456580;116;922556;-77
2021/12/12 00:48:09;;;;;;;17.37;14.91;;;;;;;4.13;64.56;102174.06;455794;116;922571;-78
2021/12/12 00:49:14;;;;;;;17.79;15.71;;;;;;;4.13;64.51;102173.21;455773;114;922527;-78
2021/12/12 00:50:25;;;;;;;22.67;15.52;;;;;;;4.11;64.41;102180.58;455939;114;930735;-77
2021/12/12 00:51:32;;;;;;;16.46;14.88;;;;;;;4.10;64.51;102181.56;455893;114;922913;-78
2021/12/12 00:52:37;;;;;;;21.81;14.66;;;;;;;4.09;64.56;102183.41;456361;114;922698;-78
2021/12/12 00:53:42;;;;;;;18.72;15.76;;;;;;;4.11;64.50;102185.97;456354;114;922564;-77
2021/12/12 00:54:49;;;;;;;20.79;15.21;;;;;;;4.10;64.39;102186.95;455961;114;930610;-77
2021/12/12 00:55:54;;;;;;;16.56;14.22;;;;;;;4.08;64.39;102187.08;456529;116;923039;-79
2021/12/12 00:57:01;;;;;;;30.68;15.39;;;;;;;4.07;64.39;102184.55;456706;114;922916;-79
2021/12/12 00:58:07;;;;;;;22.99;14.23;;;;;;;4.08;64.45;102178.98;455099;116;923155;-77
2021/12/12 00:59:12;;;;;;;17.30;14.32;;;;;;;4.08;64.33;102192.48;456403;116;922740;-77
2021/12/12 01:00:17;;;;;;;18.76;13.92;;;;;;;4.07;64.28;102176.44;456778;116;922610;-80
2021/12/12 01:01:35;;;;;;;20.19;14.27;;;;;;;4.08;64.36;102187.08;456269;116;930531;-77
2021/12/12 01:02:38;;;;;;;17.80;13.43;;;;;;;4.08;64.34;102180.86;451175;116;923450;-80
2021/12/12 01:03:46;;;;;;;19.02;13.51;;;;;;;4.09;64.19;102178.00;451552;116;922597;-79
2021/12/12 01:04:53;;;;;;;21.61;14.31;;;;;;;4.08;64.06;102170.89;456962;116;922527;-77
2021/12/12 01:05:59;;;;;;;23.14;15.38;;;;;;;4.03;64.07;102167.73;456674;116;922795;-77
2021/12/12 01:07:06;;;;;;;17.59;13.89;;;;;;;4.02;64.19;102168.75;456051;114;922767;-76
2021/12/12 01:08:10;;;;;;;19.62;14.49;;;;;;;4.02;64.26;102168.75;456523;114;923053;-77
2021/12/12 01:09:19;;;;;;;16.09;14.02;;;;;;;4.02;64.31;102162.50;456194;116;922588;-78
2021/12/12 01:10:37;;;;;;;19.32;14.08;;;;;;;4.03;64.34;102158.78;456367;114;922452;-79
2021/12/12 01:11:44;;;;;;;16.48;14.82;;;;;;;4.04;64.39;102164.05;455184;114;922575;-77
2021/12/12 01:12:48;;;;;;;20.12;14.51;;;;;;;4.06;64.40;102159.39;457796;116;922316;-76
2021/12/12 01:13:51;;;;;;;17.63;14.00;;;;;;;4.09;64.29;102169.05;458226;114;922413;-79
2021/12/12 01:15:01;;;;;;;17.11;15.01;;;;;;;4.09;64.07;102169.05;457749;116;922333;-79
2021/12/12 01:16:11;;;;;;;21.37;14.91;;;;;;;4.08;64.02;102175.45;457333;114;922358;-77
2021/12/12 01:17:21;;;;;;;19.17;14.94;;;;;;;4.07;63.96;102176.44;456170;115;922947;-77
2021/12/12 01:18:29;;;;;;;18.29;14.50;;;;;;;4.05;63.93;102162.22;455876;114;922741;-77
2021/12/12 01:19:39;;;;;;;20.28;15.13;;;;;;;4.04;63.88;102173.99;456057;114;922875;-77
2021/12/12 01:20:46;;;;;;;17.69;14.29;;;;;;;4.01;63.92;102169.73;456613;114;923255;-77
2021/12/12 01:21:53;;;;;;;19.10;15.49;;;;;;;4.00;63.99;102173.42;455569;114;922586;-77
2021/12/12 01:23:00;;;;;;;17.27;15.49;;;;;;;3.99;64.07;102171.70;456529;114;923089;-77
2021/12/12 01:24:10;;;;;;;19.96;15.36;;;;;;;4.00;64.06;102178.81;456272;114;923054;-77
2021/12/12 01:25:20;;;;;;;17.85;15.46;;;;;;;4.00;64.03;102176.12;456458;114;922530;-78
2021/12/12 01:26:31;;;;;;;22.21;16.23;;;;;;;4.11;64.08;102180.58;471531;110;947970;-78
2021/12/12 01:27:35;;;;;;;19.72;16.43;;;;;;;4.00;64.00;102177.95;463939;114;922542;-76
2021/12/12 01:28:42;;;;;;;18.56;16.03;;;;;;;4.00;63.98;102177.95;464216;114;922971;-77
2021/12/12 01:29:49;;;;;;;17.79;14.93;;;;;;;3.99;63.93;102181.64;462202;114;930602;-78
2021/12/12 01:30:54;;;;;;;16.59;14.93;;;;;;;3.99;63.85;102173.54;457235;114;922638;-77
2021/12/12 01:32:03;;;;;;;16.70;14.86;;;;;;;3.99;63.80;102177.09;457145;114;922543;-78
2021/12/12 01:33:09;;;;;;;26.40;15.09;;;;;;;3.97;63.79;102176.36;459244;114;922652;-75
2021/12/12 01:34:15;;;;;;;16.60;14.44;;;;;;;3.96;63.71;102173.82;458757;114;922613;-79
2021/12/12 01:35:20;;;;;;;17.24;14.56;;;;;;;3.93;63.70;102172.23;457357;114;922513;-78
2021/12/12 01:36:28;;;;;;;20.08;13.79;;;;;;;3.91;63.75;102170.67;458003;113;923499;-76
2021/12/12 01:38:52;;;;;;;16.84;13.77;;;;;;;3.87;63.70;102167.36;458264;113;922776;-78
2021/12/12 01:39:59;;;;;;;19.64;13.94;;;;;;;3.86;63.71;102172.91;448814;116;922502;-78
2021/12/12 01:41:02;;;;;;;16.49;13.48;;;;;;;3.82;63.73;102172.30;453816;114;922628;-77
2021/12/12 01:42:09;;;;;;;15.29;12.84;;;;;;;3.77;63.69;102171.84;457822;114;922710;-77
2021/12/12 01:43:29;;;;;;;16.17;13.35;;;;;;;3.74;63.77;102167.59;457968;113;930559;-76
2021/12/12 01:44:51;;;;;;;17.76;14.09;;;;;;;3.71;63.85;102173.23;458330;114;922737;-77
2021/12/12 01:46:03;;;;;;;18.95;13.89;;;;;;;3.72;64.07;102166.85;458206;114;922527;-76
2021/12/12 01:47:11;;;;;;;16.41;14.27;;;;;;;3.74;64.18;102175.68;458732;114;923154;-79
2021/12/12 01:48:23;;;;;;;17.17;13.95;;;;;;;3.76;64.11;102164.73;458107;113;922489;-78
2021/12/12 01:49:29;;;;;;;16.51;14.82;;;;;;;3.78;64.06;102168.16;458227;114;922569;-79
2021/12/12 01:50:39;;;;;;;19.66;13.29;;;;;;;3.77;63.98;102175.41;458420;113;922529;-77
2021/12/12 01:51:44;;;;;;;15.82;13.89;;;;;;;3.75;63.94;102163.88;459664;114;922497;-77
2021/12/12 01:52:50;;;;;;;15.85;14.26;;;;;;;3.74;63.80;102169.42;457373;114;923202;-78
2021/12/12 01:53:57;;;;;;;15.13;13.61;;;;;;;3.72;63.82;102168.69;458171;114;922521;-78
2021/12/12 01:55:12;;;;;;;17.42;14.62;;;;;;;3.70;63.88;102178.75;458326;113;922564;-77
2021/12/12 01:56:23;;;;;;;17.03;13.03;;;;;;;3.69;63.95;102182.45;456982;114;923316;-77
2021/12/12 01:57:31;;;;;;;15.66;13.80;;;;;;;3.67;63.98;102174.48;457843;114;922867;-78
2021/12/12 01:58:38;;;;;;;14.56;13.17;;;;;;;3.67;63.91;102176.33;457483;114;922799;-77
2021/12/12 01:59:42;;;;;;;14.07;12.62;;;;;;;3.65;63.75;102168.36;458400;113;922559;-78
2021/12/12 02:00:55;;;;;;;14.08;12.63;;;;;;;3.61;63.75;102163.36;458464;114;922760;-77
2021/12/12 02:02:14;;;;;;;13.48;12.22;;;;;;;3.58;63.75;102169.03;458342;114;930085;-77
2021/12/12 02:03:21;;;;;;;16.28;12.47;;;;;;;3.55;63.80;102159.34;457892;114;922869;-76
2021/12/12 02:04:27;;;;;;;14.82;12.94;;;;;;;3.55;63.83;102166.58;459343;113;922365;-78
2021/12/12 02:05:31;;;;;;;14.11;11.57;;;;;;;3.54;63.92;102160.33;460289;113;922372;-78
2021/12/12 02:06:35;;;;;;;12.85;11.66;;;;;;;3.54;63.92;102163.02;458320;114;922616;-77
2021/12/12 02:07:42;;;;;;;13.09;11.95;;;;;;;3.57;63.87;102157.39;458330;113;922877;-76
2021/12/12 02:08:49;;;;;;;12.64;11.40;;;;;;;3.57;63.85;102160.08;459262;114;922674;-78
2021/12/12 02:09:54;;;;;;;13.19;11.99;;;;;;;3.57;63.84;102160.08;458101;113;923342;-77
2021/12/12 02:11:04;;;;;;;12.41;11.36;;;;;;;3.58;63.75;102169.89;457475;113;922720;-79
2021/12/12 02:12:08;;;;;;;12.57;11.38;;;;;;;3.56;63.67;102168.30;459322;114;922616;-78
2021/12/12 02:13:15;;;;;;;12.46;11.01;;;;;;;3.52;63.52;102167.71;458662;114;922929;-79
2021/12/12 02:14:22;;;;;;;13.78;10.82;;;;;;;3.48;63.51;102168.94;457462;114;922690;-77
2021/12/12 02:15:26;;;;;;;15.65;11.88;;;;;;;3.43;63.45;102173.86;457302;114;922673;-77
2021/12/12 02:16:30;;;;;;;11.92;10.77;;;;;;;3.38;63.54;102178.80;447917;116;922688;-77
2021/12/12 02:17:40;;;;;;;12.62;11.45;;;;;;;3.35;63.64;102174.53;440525;118;922547;-77
2021/12/12 02:18:47;;;;;;;13.84;10.75;;;;;;;3.33;63.73;102175.63;456812;114;922567;-77
2021/12/12 02:20:40;;;;;;;13.64;11.27;;;;;;;3.32;63.74;102172.08;458795;114;922594;-77
2021/12/12 02:21:13;;;;;;;16.24;10.83;;;;;;;3.30;63.70;102171.38;439071;114;923301;-77
2021/12/12 02:22:35;;;;;;;13.82;11.46;;;;;;;3.28;63.75;102175.16;458028;114;922749;-77
2021/12/12 02:23:33;;;;;;;13.31;11.15;;;;;;;3.25;63.74;102170.88;460194;114;922836;-77
2021/12/12 02:35:44;;;;;;;13.43;10.88;;;;;;;3.13;64.38;102198.88;460830;113;922754;-79
2021/12/12 02:36:44;;;;;;;14.66;10.68;;;;;;;3.12;64.39;102190.91;449629;116;922681;-78
2021/12/12 02:37:49;;;;;;;11.59;10.56;;;;;;;3.10;64.41;102196.41;450018;115;922612;-77
2021/12/12 02:38:54;;;;;;;12.52;10.78;;;;;;;3.10;64.59;102182.94;449913;115;923036;-79
2021/12/12 02:39:59;;;;;;;13.10;11.44;;;;;;;3.12;64.55;102186.37;441359;118;922922;-80
2021/12/12 02:41:06;;;;;;;12.53;11.31;;;;;;;3.13;64.47;102182.70;449296;116;930440;-78
2021/12/12 02:42:14;;;;;;;14.28;10.84;;;;;;;3.13;64.40;102187.23;449460;115;922560;-78
2021/12/12 02:43:20;;;;;;;12.86;11.66;;;;;;;3.12;64.45;102190.91;441338;119;922590;-79
2021/12/12 02:44:29;;;;;;;12.61;11.22;;;;;;;3.13;64.57;102192.63;448936;116;923067;-77
2021/12/12 02:45:33;;;;;;;13.29;11.92;;;;;;;3.15;64.56;102190.64;449619;115;922496;-77
2021/12/12 02:46:37;;;;;;;15.36;12.48;;;;;;;3.19;64.62;102197.51;441539;119;922497;-77
2021/12/12 02:47:43;;;;;;;12.45;11.31;;;;;;;3.22;64.61;102195.41;442580;118;930640;-76
2021/12/12 02:48:48;;;;;;;12.64;11.27;;;;;;;3.26;64.61;102193.30;441722;118;922824;-77
2021/12/12 02:51:00;;;;;;;17.61;12.29;;;;;;;3.35;64.53;102192.55;435957;118;922861;-76
2021/12/12 02:52:07;;;;;;;17.19;11.26;;;;;;;3.38;64.42;102197.66;442264;118;922441;-78
2021/12/12 02:53:17;;;;;;;13.15;11.83;;;;;;;3.40;64.34;102194.84;451863;115;922239;-76
2021/12/12 02:54:21;;;;;;;13.82;11.31;;;;;;;3.39;64.22;102195.83;440808;118;922685;-79
2021/12/12 02:55:28;;;;;;;20.59;11.16;;;;;;;3.38;64.19;102196.80;449520;115;922950;-77
2021/12/12 02:56:38;;;;;;;17.84;11.68;;;;;;;3.37;64.12;102198.64;449393;115;922571;-77
2021/12/12 02:57:42;;;;;;;12.94;11.59;;;;;;;3.35;64.15;102196.10;442579;118;923105;-78
2021/12/12 02:58:46;;;;;;;15.83;11.88;;;;;;;3.33;64.17;102192.66;441497;118;922653;-79
2021/12/12 02:59:50;;;;;;;13.92;12.59;;;;;;;3.33;64.20;102195.36;450427;116;923070;-78
2021/12/12 03:01:10;;;;;;;14.42;11.85;;;;;;;3.33;64.16;102198.05;441589;118;930433;-78
2021/12/12 03:02:17;;;;;;;14.12;11.76;;;;;;;3.33;64.15;102197.20;441088;118;923770;-75
2021/12/12 03:03:20;;;;;;;13.21;11.84;;;;;;;3.31;64.13;102191.92;442377;118;922643;-76
2021/12/12 03:04:26;;;;;;;15.24;12.14;;;;;;;3.29;64.24;102204.70;441046;118;922614;-78
2021/12/12 03:05:33;;;;;;;15.76;11.57;;;;;;;3.29;64.33;102195.75;446849;116;922607;-76
2021/12/12 03:06:38;;;;;;;12.46;11.09;;;;;;;3.30;64.29;102192.08;450562;116;922845;-76
2021/12/12 03:07:43;;;;;;;12.11;10.92;;;;;;;3.30;64.37;102190.23;435722;120;922674;-77
2021/12/12 03:08:49;;;;;;;12.43;11.18;;;;;;;3.32;64.46;102188.25;452275;113;922648;-78
2021/12/12 03:09:56;;;;;;;11.85;10.86;;;;;;;3.35;64.40;102190.70;460091;113;922862;-78
2021/12/12 03:11:00;;;;;;;12.69;11.04;;;;;;;3.38;64.36;102180.62;449310;116;922723;-76
2021/12/12 03:12:07;;;;;;;13.08;11.66;;;;;;;3.39;64.28;102187.73;448683;113;922841;-77
2021/12/12 03:13:11;;;;;;;19.07;11.15;;;;;;;3.40;64.29;102184.06;458700;113;922554;-77
2021/12/12 03:14:17;;;;;;;12.07;10.92;;;;;;;3.41;64.27;102186.64;458883;113;922826;-80
2021/12/12 03:15:24;;;;;;;12.88;11.55;;;;;;;3.42;64.23;102193.72;460622;113;922529;-77
2021/12/12 03:16:29;;;;;;;12.46;10.33;;;;;;;3.43;64.11;102197.27;460617;113;922541;-77
2021/12/12 03:17:32;;;;;;;11.18;10.18;;;;;;;3.41;63.94;102192.03;460935;113;922612;-78
2021/12/12 03:18:40;;;;;;;12.28;9.96;;;;;;;3.38;63.90;102192.27;460336;113;923187;-78
2021/12/12 03:19:47;;;;;;;12.17;9.99;;;;;;;3.35;63.93;102198.80;460616;113;930393;-77
2021/12/12 03:20:55;;;;;;;14.59;10.82;;;;;;;3.33;64.01;102191.80;458408;113;922503;-76
2021/12/12 03:21:58;;;;;;;12.07;10.83;;;;;;;3.30;64.16;102201.02;459650;113;923303;-78
2021/12/12 03:23:23;;;;;;;16.57;11.22;;;;;;;3.31;64.27;102202.70;459617;113;922652;-76
2021/12/12 03:24:27;;;;;;;12.83;11.04;;;;;;;3.32;64.28;102195.48;458037;113;923296;-79
2021/12/12 03:25:34;;;;;;;13.58;11.17;;;;;;;3.33;64.28;102189.11;460460;113;922347;-77
2021/12/12 03:26:40;;;;;;;13.86;11.26;;;;;;;3.33;64.20;102195.36;456790;113;923650;-77
2021/12/12 03:27:43;;;;;;;13.51;11.74;;;;;;;3.30;64.19;102198.33;450376;116;923076;-78
2021/12/12 03:28:50;;;;;;;15.04;10.24;;;;;;;3.31;64.30;102199.16;450996;116;923362;-77
2021/12/12 03:29:54;;;;;;;12.49;11.29;;;;;;;3.31;64.34;102201.84;451494;116;930402;-77
2021/12/12 03:31:01;;;;;;;11.99;10.95;;;;;;;3.33;64.40;102202.59;450762;115;922901;-78
2021/12/12 03:32:08;;;;;;;12.21;10.83;;;;;;;3.35;64.40;102192.55;448591;116;922481;-76
2021/12/12 03:33:11;;;;;;;15.61;12.12;;;;;;;3.37;64.32;102195.95;451111;116;922631;-75
2021/12/12 03:34:18;;;;;;;14.15;11.14;;;;;;;3.39;64.26;102193.13;450169;116;922633;-77
2021/12/12 03:35:22;;;;;;;14.24;11.41;;;;;;;3.41;64.28;102191.17;449499;116;930390;-78
2021/12/12 03:36:26;;;;;;;12.90;11.36;;;;;;;3.41;64.26;102192.03;449806;116;922608;-78
2021/12/12 03:37:31;;;;;;;13.86;11.67;;;;;;;3.43;64.20;102195.44;449501;116;930283;-77
2021/12/12 03:38:38;;;;;;;13.69;11.34;;;;;;;3.42;64.12;102201.80;451430;116;922701;-75
2021/12/12 03:39:46;;;;;;;15.38;11.76;;;;;;;3.41;64.12;102193.88;451174;116;922222;-76
2021/12/12 03:40:49;;;;;;;12.50;10.77;;;;;;;3.40;64.13;102189.45;452311;116;922053;-78
2021/12/12 03:41:55;;;;;;;18.67;12.11;;;;;;;3.38;64.13;102197.66;451511;116;922470;-76
2021/12/12 03:43:00;;;;;;;15.76;11.81;;;;;;;3.38;64.12;102191.41;449030;116;930275;-78
2021/12/12 03:44:10;;;;;;;16.33;10.93;;;;;;;3.33;64.05;102198.05;448462;116;922528;-77
2021/12/12 03:45:15;;;;;;;11.63;10.55;;;;;;;3.31;64.15;102200.02;448895;116;922908;-77
2021/12/12 03:46:20;;;;;;;12.99;10.75;;;;;;;3.27;64.21;102198.56;448280;116;922600;-78
2021/12/12 03:47:30;;;;;;;12.23;10.98;;;;;;;3.27;64.21;102198.56;449509;116;930394;-77
2021/12/12 03:48:34;;;;;;;12.07;9.90;;;;;;;3.26;64.32;102195.98;448059;116;922545;-76
2021/12/12 03:49:38;;;;;;;12.89;11.45;;;;;;;3.22;64.43;102186.45;449942;116;922509;-77
2021/12/12 03:50:44;;;;;;;14.53;11.52;;;;;;;3.22;64.43;102186.45;449508;116;930222;-76
2021/12/12 03:51:50;;;;;;;13.51;10.61;;;;;;;3.20;64.28;102191.11;449316;116;930348;-77
2021/12/12 03:52:55;;;;;;;16.43;11.32;;;;;;;3.17;64.25;102194.93;449075;116;922604;-79
2021/12/12 03:53:58;;;;;;;12.46;10.91;;;;;;;3.15;64.42;102188.80;449610;116;922845;-79
2021/12/12 03:55:04;;;;;;;12.83;10.11;;;;;;;3.15;64.49;102187.94;450680;116;930469;-79
2021/12/12 03:56:10;;;;;;;13.02;11.32;;;;;;;3.15;64.63;102188.80;447411;116;930861;-76
2021/12/12 03:57:17;;;;;;;13.39;10.86;;;;;;;3.16;64.69;102177.05;450361;116;922549;-78
2021/12/12 03:58:21;;;;;;;12.04;10.93;;;;;;;3.18;64.72;102188.56;450398;116;922648;-76
2021/12/12 03:59:25;;;;;;;12.85;11.08;;;;;;;3.20;64.79;102172.23;449650;116;923136;-77
2021/12/12 04:00:39;;;;;;;11.75;10.55;;;;;;;3.21;64.79;102182.91;448664;116;922501;-75
2021/12/12 04:01:48;;;;;;;11.52;10.22;;;;;;;3.22;64.75;102168.45;443439;116;922781;-78
2021/12/12 04:02:53;;;;;;;12.18;10.69;;;;;;;3.23;64.70;102180.95;451021;116;922546;-77
2021/12/12 04:04:00;;;;;;;12.96;11.19;;;;;;;3.19;64.58;102182.20;450922;116;922646;-76
2021/12/12 04:05:04;;;;;;;16.56;10.94;;;;;;;3.16;64.70;102181.58;448765;116;922706;-77
2021/12/12 04:06:11;;;;;;;12.51;10.43;;;;;;;3.15;64.78;102172.63;450625;115;923008;-77
2021/12/12 04:07:18;;;;;;;15.87;11.33;;;;;;;3.16;64.85;102176.19;448570;116;930154;-76
2021/12/12 04:08:28;;;;;;;13.29;11.84;;;;;;;3.15;64.88;102175.33;447703;116;922628;-77
2021/12/12 04:09:32;;;;;;;13.28;10.74;;;;;;;3.15;64.87;102185.25;449081;116;922928;-76
2021/12/12 04:10:35;;;;;;;14.55;11.89;;;;;;;3.15;65.03;102183.41;448794;116;922698;-77
2021/12/12 04:11:45;;;;;;;13.47;10.91;;;;;;;3.15;64.99;102178.02;448165;116;922681;-78
2021/12/12 04:12:49;;;;;;;12.74;10.76;;;;;;;3.16;65.00;102181.58;448057;116;922699;-80
2021/12/12 04:13:55;;;;;;;12.59;11.27;;;;;;;3.16;65.01;102170.80;448590;116;922738;-76
2021/12/12 04:14:59;;;;;;;15.27;12.12;;;;;;;3.14;64.94;102173.61;449409;116;922451;-78
2021/12/12 04:16:02;;;;;;;13.93;11.75;;;;;;;3.13;65.09;102157.59;449270;116;922545;-76
2021/12/12 04:17:11;;;;;;;14.66;12.30;;;;;;;3.13;65.11;102153.06;449580;116;922984;-77
2021/12/12 04:18:18;;;;;;;12.73;10.48;;;;;;;3.14;65.13;102160.13;448634;116;922672;-78
2021/12/12 04:19:22;;;;;;;14.59;11.74;;;;;;;3.16;65.13;102158.17;451623;116;923006;-78
2021/12/12 04:20:29;;;;;;;13.36;11.51;;;;;;;3.16;65.11;102160.88;447714;116;922456;-80
2021/12/12 04:21:35;;;;;;;14.14;10.79;;;;;;;3.17;65.13;102154.50;449044;116;923115;-76
2021/12/12 04:22:39;;;;;;;13.62;11.30;;;;;;;3.17;65.20;102159.03;449418;116;922552;-78
2021/12/12 04:23:42;;;;;;;11.87;10.66;;;;;;;3.18;65.14;102150.83;449339;116;922600;-78
2021/12/12 04:24:48;;;;;;;14.67;11.19;;;;;;;3.18;65.10;102152.67;450413;116;930659;-77
2021/12/12 04:25:52;;;;;;;11.66;10.42;;;;;;;3.17;65.18;102146.42;450040;116;930371;-78
2021/12/12 04:26:56;;;;;;;11.45;10.36;;;;;;;3.19;65.18;102151.69;450397;116;922191;-75
2021/12/12 04:28:00;;;;;;;18.94;11.75;;;;;;;3.20;65.24;102156.06;450574;116;922462;-76
2021/12/12 04:29:19;;;;;;;12.74;11.36;;;;;;;3.22;65.33;102151.41;450093;116;922693;-76
2021/12/12 04:30:24;;;;;;;12.97;11.30;;;;;;;3.24;65.29;102158.41;450404;116;922398;-76
2021/12/12 04:31:28;;;;;;;13.12;10.97;;;;;;;3.28;65.26;102150.91;450549;116;922801;-77
2021/12/12 04:32:33;;;;;;;16.91;12.25;;;;;;;3.29;65.29;102155.31;450040;116;922706;-77
2021/12/12 04:33:36;;;;;;;14.58;11.55;;;;;;;3.32;65.28;102150.51;451282;116;923579;-77
2021/12/12 04:34:43;;;;;;;17.33;12.42;;;;;;;3.34;65.21;102153.94;451706;116;922542;-75
2021/12/12 04:35:47;;;;;;;15.19;12.04;;;;;;;3.37;65.20;102160.90;451859;116;922525;-77
2021/12/12 04:36:51;;;;;;;14.84;12.27;;;;;;;3.40;65.18;102159.80;451470;116;922897;-78
2021/12/12 04:37:57;;;;;;;15.88;12.18;;;;;;;3.41;65.09;102164.21;450841;116;922539;-76
2021/12/12 04:39:06;;;;;;;22.27;12.09;;;;;;;3.43;65.05;102171.17;450337;116;922534;-79
2021/12/12 04:40:20;;;;;;;19.37;11.89;;;;;;;3.54;65.03;102170.25;469111;110;947029;-78
2021/12/12 04:41:24;;;;;;;17.06;12.01;;;;;;;3.43;64.94;102168.47;452855;115;923026;-77
2021/12/12 04:42:33;;;;;;;15.38;12.24;;;;;;;3.42;64.84;102176.71;453914;114;923058;-78
2021/12/12 04:43:40;;;;;;;16.69;12.56;;;;;;;3.41;64.88;102172.30;459678;113;922519;-76
2021/12/12 04:44:47;;;;;;;24.59;12.65;;;;;;;3.40;64.95;102165.19;460455;113;922660;-76
2021/12/12 04:46:04;;;;;;;14.69;13.16;;;;;;;3.41;65.00;102178.55;459459;113;922521;-77
2021/12/12 04:50:44;;;;;;;19.72;12.30;;;;;;;3.44;64.95;102186.36;460423;113;922975;-78
2021/12/12 04:51:50;;;;;;;15.71;12.63;;;;;;;3.40;64.98;102187.62;459700;113;923450;-76
2021/12/12 04:53:00;;;;;;;17.76;12.33;;;;;;;3.39;64.99;102187.73;459872;113;922585;-78
2021/12/12 04:54:22;;;;;;;16.06;11.89;;;;;;;3.36;65.04;102191.56;446047;117;922360;-77
2021/12/12 04:55:46;;;;;;;15.00;11.89;;;;;;;3.35;65.10;102190.70;461004;113;922578;-77
2021/12/12 04:56:59;;;;;;;16.56;11.84;;;;;;;3.34;65.11;102207.86;461172;113;922978;-79
2021/12/12 04:58:09;;;;;;;17.91;11.76;;;;;;;3.32;65.03;102199.03;461603;113;922903;-76
2021/12/12 04:59:25;;;;;;;16.26;12.70;;;;;;;3.27;65.03;102205.80;460673;113;922798;-76
2021/12/12 05:00:32;;;;;;;17.24;12.68;;;;;;;3.22;65.09;102208.02;460370;113;923132;-76
2021/12/12 05:01:39;;;;;;;15.72;12.61;;;;;;;3.16;65.13;102213.91;460702;113;922463;-78
2021/12/12 05:02:50;;;;;;;17.11;12.71;;;;;;;3.09;65.15;102215.42;460084;113;922463;-78
2021/12/12 05:04:00;;;;;;;15.24;11.53;;;;;;;3.05;65.31;102216.64;460577;113;922282;-78
2021/12/12 05:05:16;;;;;;;19.47;12.14;;;;;;;3.01;65.48;102215.19;459566;113;922479;-77
2021/12/12 05:06:36;;;;;;;18.78;11.93;;;;;;;2.98;65.67;102218.98;460013;113;922968;-78
2021/12/12 05:07:55;;;;;;;14.37;11.72;;;;;;;2.99;65.84;102217.14;459829;113;922588;-75
2021/12/12 05:09:08;;;;;;;14.56;12.15;;;;;;;3.00;65.89;102216.16;459986;112;922493;-80
2021/12/12 05:10:16;;;;;;;16.71;12.11;;;;;;;3.01;65.96;102207.97;458842;113;922666;-79
2021/12/12 05:11:26;;;;;;;17.87;12.06;;;;;;;3.02;65.96;102216.91;460300;112;922826;-77
2021/12/12 05:12:33;;;;;;;15.71;12.08;;;;;;;3.00;66.03;102203.55;444305;113;923176;-78
2021/12/12 05:13:40;;;;;;;21.95;13.55;;;;;;;3.00;66.08;102214.33;459686;113;922989;-76
2021/12/12 05:14:48;;;;;;;14.56;12.48;;;;;;;3.01;66.20;102213.35;459125;113;922584;-75
2021/12/12 05:15:58;;;;;;;14.01;12.15;;;;;;;3.05;66.28;102219.33;459806;113;922491;-76
2021/12/12 05:17:09;;;;;;;18.98;12.51;;;;;;;3.08;66.26;102224.48;460232;113;922762;-76
2021/12/12 05:18:16;;;;;;;19.91;13.43;;;;;;;3.11;66.26;102217.00;459361;113;930451;-77
2021/12/12 05:19:23;;;;;;;20.86;12.44;;;;;;;3.15;66.31;102217.59;459972;113;922436;-78
2021/12/12 05:20:33;;;;;;;15.41;13.40;;;;;;;3.19;66.26;102221.77;459666;113;922751;-75
2021/12/12 05:21:41;;;;;;;18.24;12.99;;;;;;;3.22;66.24;102216.11;459146;113;922661;-77
2021/12/12 05:22:47;;;;;;;16.30;12.34;;;;;;;3.25;66.17;102216.69;459959;113;930453;-80